sensor_id;sensor_type;location;lat;lon;timestamp;pressure;altitude;pressure_sealevel;temperature;humidity
8637;BME280;4356;49.068;8.658;2023-08-06T00:01:51;99089.50;;;25.60;45.61
8637;BME280;4356;49.068;8.658;2023-08-06T00:04:16;99066.75;;;25.49;45.55
8637;BME280;4356;49.068;8.658;2023-08-06T00:06:42;99086.50;;;25.56;45.52
8637;BME280;4356;49.068;8.658;2023-08-06T00:09:07;99079.63;;;25.54;45.52
8637;BME280;4356;49.068;8.658;2023-08-06T00:11:33;99071.69;;;25.52;45.47
8637;BME280;4356;49.068;8.658;2023-08-06T00:13:58;99069.22;;;25.45;45.57
8637;BME280;4356;49.068;8.658;2023-08-06T00:16:24;99055.53;;;25.35;45.53
8637;BME280;4356;49.068;8.658;2023-08-06T00:18:49;99064.31;;;25.42;45.80
8637;BME280;4356;49.068;8.658;2023-08-06T00:21:15;99056.94;;;25.38;45.47
8637;BME280;4356;49.068;8.658;2023-08-06T00:23:41;99068.19;;;25.41;45.56
8637;BME280;4356;49.068;8.658;2023-08-06T00:26:06;99043.47;;;25.31;45.54
8637;BME280;4356;49.068;8.658;2023-08-06T00:28:31;99035.25;;;25.26;45.80
8637;BME280;4356;49.068;8.658;2023-08-06T00:30:57;99047.06;;;25.32;45.71
8637;BME280;4356;49.068;8.658;2023-08-06T00:33:23;99060.75;;;25.42;45.63
8637;BME280;4356;49.068;8.658;2023-08-06T00:35:49;99061.56;;;25.42;45.76
8637;BME280;4356;49.068;8.658;2023-08-06T00:38:14;99026.19;;;25.26;45.64
8637;BME280;4356;49.068;8.658;2023-08-06T00:40:40;99020.16;;;25.24;45.86
8637;BME280;4356;49.068;8.658;2023-08-06T00:43:05;99021.81;;;25.25;45.68
8637;BME280;4356;49.068;8.658;2023-08-06T00:45:34;99013.03;;;25.23;45.89
8637;BME280;4356;49.068;8.658;2023-08-06T00:48:00;99031.09;;;25.34;45.97
8637;BME280;4356;49.068;8.658;2023-08-06T00:50:26;99015.53;;;25.19;45.86
8637;BME280;4356;49.068;8.658;2023-08-06T00:52:52;99011.13;;;25.18;45.81
8637;BME280;4356;49.068;8.658;2023-08-06T00:55:17;99029.44;;;25.33;45.88
8637;BME280;4356;49.068;8.658;2023-08-06T00:57:43;99032.19;;;25.33;45.95
8637;BME280;4356;49.068;8.658;2023-08-06T01:00:09;99030.56;;;25.32;45.79
8637;BME280;4356;49.068;8.658;2023-08-06T01:02:35;99016.06;;;25.21;45.81
8637;BME280;4356;49.068;8.658;2023-08-06T01:05:00;99010.31;;;25.18;45.76
8637;BME280;4356;49.068;8.658;2023-08-06T01:15:45;99012.72;;;25.24;45.93
8637;BME280;4356;49.068;8.658;2023-08-06T01:18:11;99008.38;;;25.18;45.93
8637;BME280;4356;49.068;8.658;2023-08-06T01:20:37;99009.72;;;25.21;45.73
8637;BME280;4356;49.068;8.658;2023-08-06T01:23:02;98998.53;;;25.12;45.88
8637;BME280;4356;49.068;8.658;2023-08-06T01:30:55;98976.91;;;25.01;46.25
8637;BME280;4356;49.068;8.658;2023-08-06T01:33:43;98984.06;;;25.02;45.91
8637;BME280;4356;49.068;8.658;2023-08-06T01:36:11;98978.81;;;25.05;45.96
8637;BME280;4356;49.068;8.658;2023-08-06T01:38:36;98970.88;;;24.99;45.93
8637;BME280;4356;49.068;8.658;2023-08-06T01:41:02;98984.00;;;25.07;45.82
8637;BME280;4356;49.068;8.658;2023-08-06T01:43:27;98989.75;;;25.10;45.99
8637;BME280;4356;49.068;8.658;2023-08-06T01:45:53;98966.78;;;24.96;45.93
8637;BME280;4356;49.068;8.658;2023-08-06T01:48:18;98964.28;;;24.95;45.92
8637;BME280;4356;49.068;8.658;2023-08-06T01:50:43;98979.59;;;25.06;46.10
8637;BME280;4356;49.068;8.658;2023-08-06T01:53:09;98973.31;;;25.00;46.29
8637;BME280;4356;49.068;8.658;2023-08-06T01:55:34;98990.03;;;25.09;45.92
8637;BME280;4356;49.068;8.658;2023-08-06T01:57:59;98974.44;;;24.99;46.33
8637;BME280;4356;49.068;8.658;2023-08-06T02:00:25;98974.41;;;25.04;46.25
8637;BME280;4356;49.068;8.658;2023-08-06T02:02:52;98960.50;;;24.91;46.51
8637;BME280;4356;49.068;8.658;2023-08-06T02:05:18;98967.56;;;24.97;46.17
8637;BME280;4356;49.068;8.658;2023-08-06T02:07:43;98976.06;;;25.05;45.94
8637;BME280;4356;49.068;8.658;2023-08-06T02:10:09;98960.75;;;24.94;46.08
8637;BME280;4356;49.068;8.658;2023-08-06T02:12:34;98963.19;;;24.96;46.13
8637;BME280;4356;49.068;8.658;2023-08-06T02:14:59;98968.06;;;25.04;46.24
8637;BME280;4356;49.068;8.658;2023-08-06T02:17:27;98955.25;;;24.94;46.43
8637;BME280;4356;49.068;8.658;2023-08-06T02:20:02;98941.50;;;24.94;46.07
8637;BME280;4356;49.068;8.658;2023-08-06T02:22:31;98933.56;;;24.88;46.32
8637;BME280;4356;49.068;8.658;2023-08-06T02:24:59;98929.19;;;24.87;45.94
8637;BME280;4356;49.068;8.658;2023-08-06T02:27:25;98944.25;;;24.94;46.23
8637;BME280;4356;49.068;8.658;2023-08-06T02:29:50;98943.72;;;24.92;46.16
8637;BME280;4356;49.068;8.658;2023-08-06T02:32:16;98947.56;;;24.91;46.11
8637;BME280;4356;49.068;8.658;2023-08-06T02:34:41;98939.31;;;24.91;46.16
8637;BME280;4356;49.068;8.658;2023-08-06T02:37:06;98923.75;;;24.82;46.14
8637;BME280;4356;49.068;8.658;2023-08-06T02:39:32;98946.72;;;24.96;46.29
8637;BME280;4356;49.068;8.658;2023-08-06T02:41:58;98942.59;;;24.93;46.17
8637;BME280;4356;49.068;8.658;2023-08-06T02:44:27;98921.00;;;24.82;46.25
8637;BME280;4356;49.068;8.658;2023-08-06T02:46:52;98940.97;;;24.92;46.07
8637;BME280;4356;49.068;8.658;2023-08-06T02:49:18;98925.63;;;24.86;46.17
8637;BME280;4356;49.068;8.658;2023-08-06T02:51:45;98946.75;;;24.91;46.20
8637;BME280;4356;49.068;8.658;2023-08-06T02:54:10;98924.06;;;24.75;46.17
8637;BME280;4356;49.068;8.658;2023-08-06T02:56:35;98942.34;;;24.90;46.40
8637;BME280;4356;49.068;8.658;2023-08-06T02:59:01;98944.31;;;24.89;46.22
8637;BME280;4356;49.068;8.658;2023-08-06T03:01:26;98937.19;;;24.83;46.60
8637;BME280;4356;49.068;8.658;2023-08-06T03:03:53;98920.75;;;24.73;46.30
8637;BME280;4356;49.068;8.658;2023-08-06T03:06:19;98941.84;;;24.83;46.44
8637;BME280;4356;49.068;8.658;2023-08-06T03:08:44;98934.25;;;24.75;46.17
8637;BME280;4356;49.068;8.658;2023-08-06T03:11:09;98931.75;;;24.73;46.29
8637;BME280;4356;49.068;8.658;2023-08-06T03:13:35;98941.56;;;24.84;46.15
8637;BME280;4356;49.068;8.658;2023-08-06T03:16:03;98923.28;;;24.65;46.10
8637;BME280;4356;49.068;8.658;2023-08-06T03:18:29;98944.66;;;24.78;46.06
8637;BME280;4356;49.068;8.658;2023-08-06T03:20:54;98949.84;;;24.79;46.33
8637;BME280;4356;49.068;8.658;2023-08-06T03:23:20;98932.34;;;24.65;46.30
8637;BME280;4356;49.068;8.658;2023-08-06T03:25:46;98956.47;;;24.78;46.35
8637;BME280;4356;49.068;8.658;2023-08-06T03:28:11;98952.41;;;24.71;46.21
8637;BME280;4356;49.068;8.658;2023-08-06T03:30:37;98950.75;;;24.65;46.31
8637;BME280;4356;49.068;8.658;2023-08-06T03:33:03;98949.13;;;24.59;46.34
8637;BME280;4356;49.068;8.658;2023-08-06T03:35:30;98968.59;;;24.72;46.14
8637;BME280;4356;49.068;8.658;2023-08-06T03:37:56;98966.66;;;24.68;46.19
8637;BME280;4356;49.068;8.658;2023-08-06T03:40:21;98974.38;;;24.66;46.11
8637;BME280;4356;49.068;8.658;2023-08-06T03:42:47;98950.81;;;24.55;46.21
8637;BME280;4356;49.068;8.658;2023-08-06T03:45:12;98959.31;;;24.58;46.19
8637;BME280;4356;49.068;8.658;2023-08-06T03:47:38;98959.63;;;24.52;46.43
8637;BME280;4356;49.068;8.658;2023-08-06T03:50:03;98955.25;;;24.51;46.29
8637;BME280;4356;49.068;8.658;2023-08-06T03:52:29;98967.84;;;24.57;46.63
8637;BME280;4356;49.068;8.658;2023-08-06T03:54:54;98974.41;;;24.61;46.48
8637;BME280;4356;49.068;8.658;2023-08-06T03:57:20;98959.06;;;24.49;46.28
8637;BME280;4356;49.068;8.658;2023-08-06T03:59:45;98972.22;;;24.58;46.39
8637;BME280;4356;49.068;8.658;2023-08-06T04:02:11;98975.81;;;24.58;46.47
8637;BME280;4356;49.068;8.658;2023-08-06T04:04:36;98966.78;;;24.53;46.48
8637;BME280;4356;49.068;8.658;2023-08-06T04:07:01;98949.25;;;24.43;46.44
8637;BME280;4356;49.068;8.658;2023-08-06T04:09:30;98964.28;;;24.56;46.52
8637;BME280;4356;49.068;8.658;2023-08-06T04:11:56;98961.81;;;24.55;46.37
8637;BME280;4356;49.068;8.658;2023-08-06T04:14:24;98958.25;;;24.54;46.48
8637;BME280;4356;49.068;8.658;2023-08-06T04:16:51;98959.06;;;24.49;46.44
8637;BME280;4356;49.068;8.658;2023-08-06T04:19:16;98944.59;;;24.44;46.57
8637;BME280;4356;49.068;8.658;2023-08-06T04:21:42;98950.03;;;24.49;46.51
8637;BME280;4356;49.068;8.658;2023-08-06T04:24:07;98953.06;;;24.48;46.29
8637;BME280;4356;49.068;8.658;2023-08-06T04:26:33;98967.31;;;24.55;46.56
8637;BME280;4356;49.068;8.658;2023-08-06T04:28:58;98957.66;;;24.57;46.28
8637;BME280;4356;49.068;8.658;2023-08-06T04:31:26;98958.53;;;24.53;46.39
8637;BME280;4356;49.068;8.658;2023-08-06T04:33:54;98943.75;;;24.43;46.55
8637;BME280;4356;49.068;8.658;2023-08-06T04:36:19;98931.97;;;24.38;46.69
8637;BME280;4356;49.068;8.658;2023-08-06T04:38:44;98934.19;;;24.36;46.82
8637;BME280;4356;49.068;8.658;2023-08-06T04:41:12;98938.84;;;24.35;46.46
8637;BME280;4356;49.068;8.658;2023-08-06T04:43:37;98937.75;;;24.36;46.56
8637;BME280;4356;49.068;8.658;2023-08-06T04:46:03;98934.72;;;24.38;46.56
8637;BME280;4356;49.068;8.658;2023-08-06T04:48:28;98941.03;;;24.38;46.59
8637;BME280;4356;49.068;8.658;2023-08-06T04:50:54;98956.63;;;24.48;46.55
8637;BME280;4356;49.068;8.658;2023-08-06T04:53:20;98967.59;;;24.53;46.64
8637;BME280;4356;49.068;8.658;2023-08-06T04:55:45;98938.00;;;24.35;46.65
8637;BME280;4356;49.068;8.658;2023-08-06T04:58:11;98959.06;;;24.49;46.61
8637;BME280;4356;49.068;8.658;2023-08-06T05:00:37;98925.97;;;24.31;46.63
8637;BME280;4356;49.068;8.658;2023-08-06T05:03:03;98940.25;;;24.33;46.43
8637;BME280;4356;49.068;8.658;2023-08-06T05:05:28;98935.84;;;24.32;46.56
8637;BME280;4356;49.068;8.658;2023-08-06T05:07:55;98935.84;;;24.32;46.66
8637;BME280;4356;49.068;8.658;2023-08-06T05:10:27;98934.50;;;24.29;46.55
8637;BME280;4356;49.068;8.658;2023-08-06T05:12:53;98937.50;;;24.28;46.46
8637;BME280;4356;49.068;8.658;2023-08-06T05:15:19;98928.47;;;24.27;46.65
8637;BME280;4356;49.068;8.658;2023-08-06T05:17:44;98935.59;;;24.28;46.52
8637;BME280;4356;49.068;8.658;2023-08-06T05:20:10;98931.75;;;24.24;46.74
8637;BME280;4356;49.068;8.658;2023-08-06T05:22:36;98956.16;;;24.36;46.60
8637;BME280;4356;49.068;8.658;2023-08-06T05:25:01;98960.22;;;24.43;46.58
8637;BME280;4356;49.068;8.658;2023-08-06T05:27:27;98937.78;;;24.26;46.43
8637;BME280;4356;49.068;8.658;2023-08-06T05:29:55;98939.72;;;24.26;46.48
8637;BME280;4356;49.068;8.658;2023-08-06T05:32:23;98941.91;;;24.29;46.49
8637;BME280;4356;49.068;8.658;2023-08-06T05:34:48;98941.38;;;24.27;46.68
8637;BME280;4356;49.068;8.658;2023-08-06T05:37:14;98958.06;;;24.35;46.67
8637;BME280;4356;49.068;8.658;2023-08-06T05:39:39;98970.69;;;24.41;46.63
8637;BME280;4356;49.068;8.658;2023-08-06T05:42:05;98954.22;;;24.31;46.78
8637;BME280;4356;49.068;8.658;2023-08-06T05:44:33;98957.81;;;24.32;46.62
8637;BME280;4356;49.068;8.658;2023-08-06T05:46:59;98960.25;;;24.33;46.56
8637;BME280;4356;49.068;8.658;2023-08-06T05:49:24;98943.03;;;24.23;46.60
8637;BME280;4356;49.068;8.658;2023-08-06T05:51:53;98946.88;;;24.22;46.49
8637;BME280;4356;49.068;8.658;2023-08-06T05:54:18;98963.03;;;24.28;46.65
8637;BME280;4356;49.068;8.658;2023-08-06T05:56:46;98952.66;;;24.20;46.58
8637;BME280;4356;49.068;8.658;2023-08-06T05:59:12;98962.22;;;24.28;46.58
8637;BME280;4356;49.068;8.658;2023-08-06T06:01:37;98966.34;;;24.30;46.49
8637;BME280;4356;49.068;8.658;2023-08-06T06:04:03;98960.88;;;24.25;46.63
8637;BME280;4356;49.068;8.658;2023-08-06T06:06:32;98937.84;;;24.16;46.52
8637;BME280;4356;49.068;8.658;2023-08-06T06:09:03;98948.53;;;24.23;46.84
8637;BME280;4356;49.068;8.658;2023-08-06T06:11:28;98940.31;;;24.18;46.73
8637;BME280;4356;49.068;8.658;2023-08-06T06:13:54;98949.09;;;24.20;46.74
8637;BME280;4356;49.068;8.658;2023-08-06T06:16:19;98951.56;;;24.21;46.81
8637;BME280;4356;49.068;8.658;2023-08-06T06:18:45;98957.00;;;24.26;46.58
8637;BME280;4356;49.068;8.658;2023-08-06T06:21:16;98961.41;;;24.27;46.72
8637;BME280;4356;49.068;8.658;2023-08-06T06:23:42;98959.25;;;24.19;46.62
8637;BME280;4356;49.068;8.658;2023-08-06T06:26:09;98960.91;;;24.20;46.68
8637;BME280;4356;49.068;8.658;2023-08-06T06:28:35;98987.72;;;24.33;46.61
8637;BME280;4356;49.068;8.658;2023-08-06T06:31:01;98966.66;;;24.19;46.55
8637;BME280;4356;49.068;8.658;2023-08-06T06:33:27;98969.13;;;24.15;46.66
8637;BME280;4356;49.068;8.658;2023-08-06T06:35:55;98994.91;;;24.24;46.80
8637;BME280;4356;49.068;8.658;2023-08-06T06:38:20;98983.69;;;24.16;46.53
8637;BME280;4356;49.068;8.658;2023-08-06T06:40:56;98993.28;;;24.23;46.78
8637;BME280;4356;49.068;8.658;2023-08-06T06:43:22;98994.09;;;24.24;46.57
8637;BME280;4356;49.068;8.658;2023-08-06T06:45:56;98980.94;;;24.16;46.53
8637;BME280;4356;49.068;8.658;2023-08-06T06:48:22;98983.41;;;24.17;46.59
8637;BME280;4356;49.068;8.658;2023-08-06T06:50:48;98977.41;;;24.10;46.67
8637;BME280;4356;49.068;8.658;2023-08-06T06:53:14;98982.06;;;24.15;46.55
8637;BME280;4356;49.068;8.658;2023-08-06T06:55:39;98981.50;;;24.18;46.74
8637;BME280;4356;49.068;8.658;2023-08-06T06:58:05;98976.31;;;24.11;46.76
8637;BME280;4356;49.068;8.658;2023-08-06T07:00:30;98977.69;;;24.09;46.63
8637;BME280;4356;49.068;8.658;2023-08-06T07:02:55;98987.56;;;24.10;46.73
8637;BME280;4356;49.068;8.658;2023-08-06T07:05:24;98984.53;;;24.16;46.72
8637;BME280;4356;49.068;8.658;2023-08-06T07:07:49;98977.41;;;24.10;46.56
8637;BME280;4356;49.068;8.658;2023-08-06T07:10:18;98985.06;;;24.18;46.72
8637;BME280;4356;49.068;8.658;2023-08-06T07:12:43;98988.66;;;24.14;46.57
8637;BME280;4356;49.068;8.658;2023-08-06T07:15:09;98977.97;;;24.07;46.72
8637;BME280;4356;49.068;8.658;2023-08-06T07:17:35;98969.75;;;24.07;46.76
8637;BME280;4356;49.068;8.658;2023-08-06T07:20:00;98974.94;;;24.09;46.52
8637;BME280;4356;49.068;8.658;2023-08-06T07:22:25;98997.09;;;24.22;46.77
8637;BME280;4356;49.068;8.658;2023-08-06T07:24:51;98993.03;;;24.20;46.59
8637;BME280;4356;49.068;8.658;2023-08-06T07:27:17;98975.75;;;24.14;46.45
8637;BME280;4356;49.068;8.658;2023-08-06T07:29:42;98991.09;;;24.15;46.55
8637;BME280;4356;49.068;8.658;2023-08-06T07:32:08;99002.34;;;24.24;46.67
8637;BME280;4356;49.068;8.658;2023-08-06T07:34:33;98987.56;;;24.15;46.39
8637;BME280;4356;49.068;8.658;2023-08-06T07:36:58;99008.38;;;24.21;46.63
8637;BME280;4356;49.068;8.658;2023-08-06T07:39:24;99005.38;;;24.17;46.49
8637;BME280;4356;49.068;8.658;2023-08-06T07:41:50;99008.38;;;24.21;46.59
8637;BME280;4356;49.068;8.658;2023-08-06T07:44:15;99004.00;;;24.20;46.60
8637;BME280;4356;49.068;8.658;2023-08-06T07:46:41;99000.72;;;24.18;46.48
8637;BME280;4356;49.068;8.658;2023-08-06T07:49:07;99011.38;;;24.24;46.63
8637;BME280;4356;49.068;8.658;2023-08-06T07:51:32;99013.31;;;24.24;46.57
8637;BME280;4356;49.068;8.658;2023-08-06T07:53:58;99014.13;;;24.24;46.59
8637;BME280;4356;49.068;8.658;2023-08-06T07:56:23;99008.63;;;24.24;46.58
8637;BME280;4356;49.068;8.658;2023-08-06T07:58:49;99016.59;;;24.26;46.39
8637;BME280;4356;49.068;8.658;2023-08-06T08:01:14;98991.66;;;24.12;46.43
8637;BME280;4356;49.068;8.658;2023-08-06T08:03:39;99016.31;;;24.22;46.56
8637;BME280;4356;49.068;8.658;2023-08-06T08:06:05;99002.59;;;24.22;46.31
8637;BME280;4356;49.068;8.658;2023-08-06T08:08:30;99000.69;;;24.23;46.44
8637;BME280;4356;49.068;8.658;2023-08-06T08:10:56;99001.47;;;24.28;46.43
8637;BME280;4356;49.068;8.658;2023-08-06T08:13:21;98997.09;;;24.22;46.33
8637;BME280;4356;49.068;8.658;2023-08-06T08:15:47;98996.84;;;24.24;46.52
8637;BME280;4356;49.068;8.658;2023-08-06T08:18:12;98999.31;;;24.25;46.37
8637;BME280;4356;49.068;8.658;2023-08-06T08:20:37;98992.44;;;24.23;46.29
8637;BME280;4356;49.068;8.658;2023-08-06T08:23:03;98993.28;;;24.23;46.33
8637;BME280;4356;49.068;8.658;2023-08-06T08:25:28;99012.97;;;24.35;46.37
8637;BME280;4356;49.068;8.658;2023-08-06T08:27:54;98993.25;;;24.28;46.40
8637;BME280;4356;49.068;8.658;2023-08-06T08:30:20;98996.00;;;24.28;46.15
8637;BME280;4356;49.068;8.658;2023-08-06T08:32:47;98974.63;;;24.20;46.22
8637;BME280;4356;49.068;8.658;2023-08-06T08:35:13;99004.19;;;24.38;46.27
8637;BME280;4356;49.068;8.658;2023-08-06T08:37:39;98972.41;;;24.22;46.23
8637;BME280;4356;49.068;8.658;2023-08-06T08:40:06;98976.81;;;24.23;46.07
8637;BME280;4356;49.068;8.658;2023-08-06T08:42:32;98989.13;;;24.31;46.30
8637;BME280;4356;49.068;8.658;2023-08-06T08:44:57;98985.28;;;24.27;46.21
8637;BME280;4356;49.068;8.658;2023-08-06T08:47:24;98994.38;;;24.27;46.11
8637;BME280;4356;49.068;8.658;2023-08-06T08:49:52;98964.41;;;24.26;45.98
8637;BME280;4356;49.068;8.658;2023-08-06T08:52:20;98975.69;;;24.29;46.00
8637;BME280;4356;49.068;8.658;2023-08-06T08:54:48;98978.94;;;24.36;46.06
8637;BME280;4356;49.068;8.658;2023-08-06T08:57:17;98970.75;;;24.26;46.36
8637;BME280;4356;49.068;8.658;2023-08-06T08:59:42;98993.72;;;24.45;46.21
8637;BME280;4356;49.068;8.658;2023-08-06T09:02:11;98997.84;;;24.43;46.17
8637;BME280;4356;49.068;8.658;2023-08-06T09:04:38;98977.06;;;24.27;46.13
8637;BME280;4356;49.068;8.658;2023-08-06T09:07:05;98987.97;;;24.37;46.20
8637;BME280;4356;49.068;8.658;2023-08-06T09:09:34;98976.78;;;24.28;46.05
8637;BME280;4356;49.068;8.658;2023-08-06T09:12:11;98996.22;;;24.37;46.22
8637;BME280;4356;49.068;8.658;2023-08-06T09:14:40;99003.09;;;24.39;46.27
8637;BME280;4356;49.068;8.658;2023-08-06T09:17:07;99005.00;;;24.44;46.15
8637;BME280;4356;49.068;8.658;2023-08-06T09:19:32;98991.03;;;24.30;46.19
8637;BME280;4356;49.068;8.658;2023-08-06T09:22:01;99000.09;;;24.36;46.22
8637;BME280;4356;49.068;8.658;2023-08-06T09:24:26;98991.59;;;24.32;46.36
8637;BME280;4356;49.068;8.658;2023-08-06T09:26:53;98991.31;;;24.34;46.09
8637;BME280;4356;49.068;8.658;2023-08-06T09:29:19;98998.13;;;24.41;46.19
8637;BME280;4356;49.068;8.658;2023-08-06T09:31:50;98980.03;;;24.35;46.15
8637;BME280;4356;49.068;8.658;2023-08-06T09:34:21;99013.19;;;24.54;46.11
8637;BME280;4356;49.068;8.658;2023-08-06T09:36:54;98998.13;;;24.41;46.08
8637;BME280;4356;49.068;8.658;2023-08-06T09:39:21;99007.97;;;24.53;46.10
8637;BME280;4356;49.068;8.658;2023-08-06T09:41:48;99017.88;;;24.48;46.05
8637;BME280;4356;49.068;8.658;2023-08-06T09:44:18;99034.56;;;24.57;45.88
8637;BME280;4356;49.068;8.658;2023-08-06T09:46:54;99011.28;;;24.44;46.00
8637;BME280;4356;49.068;8.658;2023-08-06T09:49:21;99029.06;;;24.57;46.01
8637;BME280;4356;49.068;8.658;2023-08-06T09:51:51;99024.41;;;24.58;46.04
8637;BME280;4356;49.068;8.658;2023-08-06T09:54:19;99026.91;;;24.54;46.09
8637;BME280;4356;49.068;8.658;2023-08-06T09:56:44;99018.72;;;24.44;45.99
8637;BME280;4356;49.068;8.658;2023-08-06T09:59:10;99005.50;;;24.46;46.05
8637;BME280;4356;49.068;8.658;2023-08-06T10:01:38;99044.19;;;24.60;45.91
8637;BME280;4356;49.068;8.658;2023-08-06T10:04:05;99020.59;;;24.54;46.00
8637;BME280;4356;49.068;8.658;2023-08-06T10:06:35;99017.03;;;24.48;45.83
8637;BME280;4356;49.068;8.658;2023-08-06T10:09:02;99030.16;;;24.61;46.11
8637;BME280;4356;49.068;8.658;2023-08-06T10:11:29;99022.78;;;24.52;45.89
8637;BME280;4356;49.068;8.658;2023-08-06T10:14:08;99032.09;;;24.61;45.89
8637;BME280;4356;49.068;8.658;2023-08-06T10:16:35;99042.00;;;24.57;46.00
8637;BME280;4356;49.068;8.658;2023-08-06T10:19:04;99042.53;;;24.59;46.00
8637;BME280;4356;49.068;8.658;2023-08-06T10:21:33;99041.19;;;24.56;45.98
8637;BME280;4356;49.068;8.658;2023-08-06T10:23:58;99039.81;;;24.54;45.83
8637;BME280;4356;49.068;8.658;2023-08-06T10:26:28;99045.31;;;24.54;45.98
8637;BME280;4356;49.068;8.658;2023-08-06T10:28:53;99052.44;;;24.60;46.07
8637;BME280;4356;49.068;8.658;2023-08-06T10:31:19;99040.09;;;24.52;45.90
8637;BME280;4356;49.068;8.658;2023-08-06T10:33:46;99067.25;;;24.64;46.11
8637;BME280;4356;49.068;8.658;2023-08-06T10:36:12;99060.44;;;24.51;46.00
8637;BME280;4356;49.068;8.658;2023-08-06T10:38:47;99081.53;;;24.61;45.80
8637;BME280;4356;49.068;8.658;2023-08-06T10:41:29;99089.53;;;24.62;45.70
8637;BME280;4356;49.068;8.658;2023-08-06T10:44:08;99095.81;;;24.63;45.83
8637;BME280;4356;49.068;8.658;2023-08-06T10:46:34;99094.72;;;24.64;45.95
8637;BME280;4356;49.068;8.658;2023-08-06T10:48:59;99090.06;;;24.59;45.98
8637;BME280;4356;49.068;8.658;2023-08-06T10:51:25;99109.00;;;24.61;46.01
8637;BME280;4356;49.068;8.658;2023-08-06T10:53:51;99081.59;;;24.51;45.91
8637;BME280;4356;49.068;8.658;2023-08-06T10:56:21;99083.75;;;24.54;45.96
8637;BME280;4356;49.068;8.658;2023-08-06T10:58:51;99104.34;;;24.61;45.93
8637;BME280;4356;49.068;8.658;2023-08-06T11:01:17;99101.34;;;24.58;45.90
8637;BME280;4356;49.068;8.658;2023-08-06T11:03:45;99087.06;;;24.51;46.17
8637;BME280;4356;49.068;8.658;2023-08-06T11:06:17;99093.66;;;24.49;45.97
8637;BME280;4356;49.068;8.658;2023-08-06T11:08:48;99113.16;;;24.58;45.97
8637;BME280;4356;49.068;8.658;2023-08-06T11:11:15;99118.94;;;24.57;46.07
8637;BME280;4356;49.068;8.658;2023-08-06T11:13:41;99122.19;;;24.59;46.08
8637;BME280;4356;49.068;8.658;2023-08-06T11:16:07;99126.88;;;24.58;46.17
8637;BME280;4356;49.068;8.658;2023-08-06T11:18:33;99127.97;;;24.57;46.01
8637;BME280;4356;49.068;8.658;2023-08-06T11:20:59;99130.47;;;24.54;46.07
8637;BME280;4356;49.068;8.658;2023-08-06T11:23:29;99128.28;;;24.51;46.22
8637;BME280;4356;49.068;8.658;2023-08-06T11:25:58;99144.75;;;24.56;46.10
8637;BME280;4356;49.068;8.658;2023-08-06T11:28:24;99133.50;;;24.52;46.07
8637;BME280;4356;49.068;8.658;2023-08-06T11:30:50;99146.13;;;24.53;46.02
8637;BME280;4356;49.068;8.658;2023-08-06T11:33:25;99137.59;;;24.49;46.10
8637;BME280;4356;49.068;8.658;2023-08-06T11:35:51;99150.81;;;24.53;46.10
8637;BME280;4356;49.068;8.658;2023-08-06T11:38:16;99145.59;;;24.46;46.40
8637;BME280;4356;49.068;8.658;2023-08-06T11:40:44;99160.69;;;24.48;46.35
8637;BME280;4356;49.068;8.658;2023-08-06T11:43:10;99164.56;;;24.48;46.41
8637;BME280;4356;49.068;8.658;2023-08-06T11:45:36;99145.06;;;24.39;46.11
8637;BME280;4356;49.068;8.658;2023-08-06T11:48:01;99161.25;;;24.45;46.25
8637;BME280;4356;49.068;8.658;2023-08-06T11:50:27;99151.13;;;24.36;46.27
8637;BME280;4356;49.068;8.658;2023-08-06T11:52:56;99158.00;;;24.38;46.15
8637;BME280;4356;49.068;8.658;2023-08-06T11:55:23;99167.03;;;24.44;46.33
8637;BME280;4356;49.068;8.658;2023-08-06T11:57:49;99160.72;;;24.33;46.41
8637;BME280;4356;49.068;8.658;2023-08-06T12:00:17;99140.41;;;24.24;46.24
8637;BME280;4356;49.068;8.658;2023-08-06T12:02:46;99179.38;;;24.41;46.17
8637;BME280;4356;49.068;8.658;2023-08-06T12:05:19;99177.75;;;24.35;46.24
8637;BME280;4356;49.068;8.658;2023-08-06T12:07:53;99170.63;;;24.24;46.19
8637;BME280;4356;49.068;8.658;2023-08-06T12:10:21;99190.94;;;24.33;46.32
8637;BME280;4356;49.068;8.658;2023-08-06T12:12:47;99172.56;;;24.24;46.40
8637;BME280;4356;49.068;8.658;2023-08-06T12:15:14;99192.06;;;24.27;46.22
8637;BME280;4356;49.068;8.658;2023-08-06T12:17:41;99169.81;;;24.24;46.30
8637;BME280;4356;49.068;8.658;2023-08-06T12:20:07;99200.25;;;24.37;46.32
8637;BME280;4356;49.068;8.658;2023-08-06T12:22:33;99188.75;;;24.25;46.40
8637;BME280;4356;49.068;8.658;2023-08-06T12:25:08;99190.66;;;24.30;46.46
8637;BME280;4356;49.068;8.658;2023-08-06T12:27:35;99183.00;;;24.22;46.40
8637;BME280;4356;49.068;8.658;2023-08-06T12:30:01;99198.09;;;24.29;46.40
8637;BME280;4356;49.068;8.658;2023-08-06T12:32:26;99183.28;;;24.20;46.50
8637;BME280;4356;49.068;8.658;2023-08-06T12:34:52;99196.16;;;24.25;46.43
8637;BME280;4356;49.068;8.658;2023-08-06T12:37:17;99221.13;;;24.33;46.33
8637;BME280;4356;49.068;8.658;2023-08-06T12:39:43;99215.13;;;24.36;46.47
8637;BME280;4356;49.068;8.658;2023-08-06T12:42:08;99221.41;;;24.37;46.35
8637;BME280;4356;49.068;8.658;2023-08-06T12:44:35;99191.53;;;24.20;46.46
8637;BME280;4356;49.068;8.658;2023-08-06T12:47:00;99188.47;;;24.17;46.32
8637;BME280;4356;49.068;8.658;2023-08-06T12:49:26;99206.88;;;24.21;46.62
8637;BME280;4356;49.068;8.658;2023-08-06T12:51:52;99215.13;;;24.21;46.51
8637;BME280;4356;49.068;8.658;2023-08-06T12:54:18;99203.59;;;24.19;46.41
8637;BME280;4356;49.068;8.658;2023-08-06T12:56:45;99204.41;;;24.20;46.30
8637;BME280;4356;49.068;8.658;2023-08-06T12:59:10;99205.25;;;24.20;46.36
8637;BME280;4356;49.068;8.658;2023-08-06T13:01:37;99217.28;;;24.24;46.49
8637;BME280;4356;49.068;8.658;2023-08-06T13:04:03;99229.38;;;24.28;46.19
8637;BME280;4356;49.068;8.658;2023-08-06T13:06:29;99243.38;;;24.37;46.42
8637;BME280;4356;49.068;8.658;2023-08-06T13:08:56;99234.88;;;24.33;46.24
8637;BME280;4356;49.068;8.658;2023-08-06T13:11:22;99233.22;;;24.32;46.44
8637;BME280;4356;49.068;8.658;2023-08-06T13:13:47;99243.66;;;24.35;46.44
8637;BME280;4356;49.068;8.658;2023-08-06T13:16:13;99243.09;;;24.33;46.48
8637;BME280;4356;49.068;8.658;2023-08-06T13:18:41;99254.63;;;24.35;46.24
8637;BME280;4356;49.068;8.658;2023-08-06T13:21:12;99239.28;;;24.29;46.30
8637;BME280;4356;49.068;8.658;2023-08-06T13:23:38;99245.06;;;24.33;46.44
8637;BME280;4356;49.068;8.658;2023-08-06T13:26:03;99232.13;;;24.28;46.21
8637;BME280;4356;49.068;8.658;2023-08-06T13:28:32;99237.63;;;24.28;46.33
8637;BME280;4356;49.068;8.658;2023-08-06T13:30:57;99235.72;;;24.24;46.28
8637;BME280;4356;49.068;8.658;2023-08-06T13:33:23;99239.81;;;24.26;46.41